Time;durP1;ratioP1;P1;durP2;ratioP2;P2;SDS_P1;SDS_P2;PMS_P1;PMS_P2;Temp;Humidity;BMP_temperature;BMP_pressure;BME280_temperature;BME280_humidity;BME280_pressure;Samples;Min_cycle;Max_cycle;Signal;HPM_P1;HPM_P2
2021/11/18 00:00:22;;;;;;;25.60;14.80;;;;;;;3.27;100.00;101928.09;680350;28;945;-53
2021/11/18 00:00:47;;;;;;;24.88;14.50;;;;;;;3.29;100.00;101923.91;680704;28;1070;-50
2021/11/18 00:01:10;;;;;;;23.23;14.35;;;;;;;3.36;100.00;101931.09;678630;29;1141;-52
2021/11/18 00:01:31;;;;;;;24.05;14.55;;;;;;;3.43;100.00;101919.34;679854;28;1202;-52
2021/11/18 00:02:01;;;;;;;23.73;13.75;;;;;;;3.53;100.00;101926.69;679764;28;3319;-53
2021/11/18 00:02:22;;;;;;;23.13;14.40;;;;;;;3.56;100.00;101927.72;679857;28;4711;-54
2021/11/18 00:02:44;;;;;;;21.80;13.85;;;;;;;3.54;100.00;101920.72;680504;29;1188;-54
2021/11/18 00:03:05;;;;;;;21.38;13.35;;;;;;;3.49;100.00;101923.09;679601;29;1562;-53
2021/11/18 00:03:27;;;;;;;22.80;13.63;;;;;;;3.46;100.00;101925.56;677910;29;1081;-50
2021/11/18 00:03:48;;;;;;;22.65;13.90;;;;;;;3.38;100.00;101922.63;676632;29;2079;-51
2021/11/18 00:04:08;;;;;;;21.93;13.93;;;;;;;3.35;100.00;101925.06;676080;29;2622;-51
2021/11/18 00:04:29;;;;;;;22.33;14.13;;;;;;;3.34;100.00;101923.28;678259;29;1204;-50
2021/11/18 00:04:54;;;;;;;21.13;13.68;;;;;;;3.34;100.00;101917.25;677342;29;1056;-54
2021/11/18 00:05:16;;;;;;;22.90;14.02;;;;;;;3.35;100.00;101919.91;682731;28;3393;-52
2021/11/18 00:05:38;;;;;;;21.75;13.63;;;;;;;3.38;100.00;101919.16;684429;28;4872;-51
2021/11/18 00:05:58;;;;;;;23.98;13.88;;;;;;;3.40;100.00;101914.94;685367;28;1271;-51
2021/11/18 00:06:19;;;;;;;25.40;14.40;;;;;;;3.36;100.00;101921.66;683088;28;1433;-55
2021/11/18 00:06:41;;;;;;;23.53;14.23;;;;;;;3.34;100.00;101920.72;681825;28;1136;-55
2021/11/18 00:07:02;;;;;;;25.20;14.13;;;;;;;3.35;100.00;101919.91;681507;28;1394;-56
2021/11/18 00:07:22;;;;;;;25.08;14.13;;;;;;;3.40;100.00;101913.22;680723;28;1914;-53
2021/11/18 00:07:48;;;;;;;23.07;13.90;;;;;;;3.49;100.00;101923.09;679653;29;1148;-54
2021/11/18 00:08:09;;;;;;;20.75;13.20;;;;;;;3.49;100.00;101924.78;679604;28;3356;-53
2021/11/18 00:08:29;;;;;;;22.58;13.73;;;;;;;3.43;100.00;101917.63;680210;28;4556;-52
2021/11/18 00:08:50;;;;;;;22.90;13.38;;;;;;;3.40;100.00;101918.38;679274;29;1291;-53
2021/11/18 00:09:11;;;;;;;25.37;13.77;;;;;;;3.40;100.00;101914.94;680494;29;1088;-54
2021/11/18 00:09:31;;;;;;;23.03;13.53;;;;;;;3.39;100.00;101916.63;679775;28;1149;-55
2021/11/18 00:09:51;;;;;;;22.93;13.97;;;;;;;3.38;100.00;101919.16;679797;29;1319;-52
2021/11/18 00:10:17;;;;;;;23.07;14.40;;;;;;;3.36;100.00;101919.06;679770;29;1359;-53
2021/11/18 00:10:44;;;;;;;23.67;13.95;;;;;;;3.34;100.00;101917.25;680110;28;1291;-55
2021/11/18 00:11:07;;;;;;;24.67;14.45;;;;;;;3.30;100.00;101921.38;680135;28;3604;-53
2021/11/18 00:11:27;;;;;;;22.50;14.55;;;;;;;3.29;100.00;101916.16;679666;28;4618;-56
2021/11/18 00:11:52;;;;;;;23.13;14.30;;;;;;;3.33;100.00;101920.63;680450;28;1098;-53
2021/11/18 00:12:12;;;;;;;22.90;14.32;;;;;;;3.33;100.00;101912.88;679501;29;1319;-54
2021/11/18 00:12:33;;;;;;;22.60;14.70;;;;;;;3.29;100.00;101919.59;680862;28;1172;-52
2021/11/18 00:12:56;;;;;;;23.10;15.20;;;;;;;3.28;100.00;101922.13;681017;28;1228;-51
2021/11/18 00:13:18;;;;;;;23.00;14.77;;;;;;;3.26;100.00;101919.47;681135;29;1395;-52
2021/11/18 00:13:45;;;;;;;22.20;13.73;;;;;;;3.23;100.00;101914.19;681271;28;1097;-51
2021/11/18 00:14:06;;;;;;;23.73;13.88;;;;;;;3.22;100.00;101922.72;678627;28;1828;-51
2021/11/18 00:14:27;;;;;;;22.25;13.95;;;;;;;3.22;100.00;101920.16;679775;28;4370;-52
2021/11/18 00:14:47;;;;;;;21.10;13.73;;;;;;;3.21;100.00;101920.97;680151;29;1437;-51
2021/11/18 00:15:09;;;;;;;23.95;14.68;;;;;;;3.24;100.00;101915.94;679352;29;1145;-53
2021/11/18 00:15:30;;;;;;;22.90;14.23;;;;;;;3.25;100.00;101917.69;680131;29;1030;-52
2021/11/18 00:15:51;;;;;;;23.15;14.20;;;;;;;3.25;100.00;101917.69;680210;29;1051;-51
2021/11/18 00:16:11;;;;;;;21.53;13.90;;;;;;;3.30;100.00;101920.50;679617;29;1207;-51
2021/11/18 00:16:32;;;;;;;21.40;13.70;;;;;;;3.35;100.00;101919.91;682279;28;1141;-55
2021/11/18 00:16:52;;;;;;;22.47;14.00;;;;;;;3.38;100.00;101917.44;683448;28;1904;-52
2021/11/18 00:17:12;;;;;;;23.58;14.10;;;;;;;3.40;100.00;101918.38;682354;28;3498;-55
2021/11/18 00:17:33;;;;;;;21.80;13.83;;;;;;;3.38;100.00;101916.56;682417;28;4575;-54
2021/11/18 00:17:59;;;;;;;20.98;13.65;;;;;;;3.33;100.00;101913.75;682702;28;1409;-52
2021/11/18 00:18:22;;;;;;;20.88;13.32;;;;;;;3.31;100.00;101918.00;681116;28;1243;-52
2021/11/18 00:18:43;;;;;;;20.23;13.60;;;;;;;3.30;100.00;101915.34;679235;28;1944;-54
2021/11/18 00:19:05;;;;;;;21.52;13.98;;;;;;;3.37;100.00;101914.78;679815;28;1033;-50
2021/11/18 00:19:25;;;;;;;22.67;13.70;;;;;;;3.43;100.00;101922.81;680143;29;1074;-52
2021/11/18 00:19:45;;;;;;;22.43;13.70;;;;;;;3.38;100.00;101913.97;680166;28;1257;-53
2021/11/18 00:20:09;;;;;;;22.83;13.85;;;;;;;3.33;100.00;101913.75;679298;28;3389;-53
2021/11/18 00:20:36;;;;;;;23.88;14.38;;;;;;;3.30;100.00;101916.22;679267;28;4347;-53
2021/11/18 00:21:06;;;;;;;24.30;14.07;;;;;;;3.26;100.00;101918.59;680271;28;1442;-51
2021/11/18 00:21:29;;;;;;;19.58;13.48;;;;;;;3.31;100.00;101920.56;679108;29;1985;-52
2021/11/18 00:21:50;;;;;;;21.25;13.95;;;;;;;3.38;100.00;101924.31;680319;29;1129;-55
2021/11/18 00:22:10;;;;;;;21.33;13.88;;;;;;;3.43;100.00;101927.97;680556;29;1232;-53
2021/11/18 00:22:31;;;;;;;20.90;13.47;;;;;;;3.45;100.00;101923.78;680110;28;1232;-51
2021/11/18 00:22:53;;;;;;;21.33;13.90;;;;;;;3.43;100.00;101924.53;680198;28;2248;-52
2021/11/18 00:23:14;;;;;;;20.80;14.02;;;;;;;3.34;100.00;101923.28;679881;29;3562;-51
2021/11/18 00:23:38;;;;;;;22.05;13.77;;;;;;;3.32;100.00;101919.72;681774;28;4459;-52
2021/11/18 00:24:00;;;;;;;20.58;14.13;;;;;;;3.31;100.00;101919.66;681673;28;2017;-55
2021/11/18 00:24:21;;;;;;;22.08;14.43;;;;;;;3.30;100.00;101923.97;682401;28;1522;-52
2021/11/18 00:24:42;;;;;;;21.75;13.80;;;;;;;3.32;100.00;101921.44;679160;28;1074;-52
2021/11/18 00:25:02;;;;;;;22.63;14.37;;;;;;;3.36;100.00;101923.34;680011;28;1160;-52
2021/11/18 00:25:24;;;;;;;22.30;14.18;;;;;;;3.38;100.00;101925.19;679675;28;1302;-50
2021/11/18 00:25:45;;;;;;;21.00;13.35;;;;;;;3.40;100.00;101914.94;679252;28;1930;-51
2021/11/18 00:26:07;;;;;;;21.88;13.60;;;;;;;3.43;100.00;101917.63;679122;28;3314;-51
2021/11/18 00:26:30;;;;;;;21.42;13.20;;;;;;;3.47;100.00;101914.38;678948;28;4528;-52
2021/11/18 00:26:54;;;;;;;19.88;13.35;;;;;;;3.49;100.00;101912.75;680169;29;1486;-53
2021/11/18 00:27:14;;;;;;;20.48;13.02;;;;;;;3.54;100.00;101920.72;680236;29;1196;-52
2021/11/18 00:27:35;;;;;;;19.03;12.67;;;;;;;3.52;100.00;101920.63;680134;29;1911;-51
2021/11/18 00:27:56;;;;;;;19.50;13.38;;;;;;;3.46;100.00;101922.97;679655;29;1332;-52
2021/11/18 00:28:16;;;;;;;22.53;14.10;;;;;;;3.39;100.00;101921.81;680522;29;1303;-54
2021/11/18 00:28:38;;;;;;;22.55;14.00;;;;;;;3.37;100.00;101926.00;676941;29;2007;-51
2021/11/18 00:29:00;;;;;;;22.08;14.10;;;;;;;3.40;100.00;101922.69;676250;29;4080;-51
2021/11/18 00:29:22;;;;;;;19.65;13.38;;;;;;;3.39;100.00;101918.31;676949;28;4419;-53
2021/11/18 00:29:42;;;;;;;20.77;13.45;;;;;;;3.37;100.00;101925.13;680003;29;1279;-51
2021/11/18 00:30:06;;;;;;;22.83;13.53;;;;;;;3.34;100.00;101917.25;682174;28;1382;-52
2021/11/18 00:30:26;;;;;;;20.70;13.57;;;;;;;3.34;100.00;101918.13;679931;28;1128;-53
2021/11/18 00:30:47;;;;;;;22.08;14.00;;;;;;;3.34;100.00;101917.25;680389;28;1263;-52
2021/11/18 00:31:09;;;;;;;23.75;14.35;;;;;;;3.32;100.00;101924.03;680255;29;1154;-54
2021/11/18 00:31:33;;;;;;;22.10;13.90;;;;;;;3.29;100.00;101916.16;677663;28;1169;-54
2021/11/18 00:31:53;;;;;;;22.23;14.43;;;;;;;3.28;100.00;101923.03;676652;29;3292;-50
2021/11/18 00:32:13;;;;;;;22.67;14.07;;;;;;;3.28;100.00;101923.03;676442;29;1191;-53
2021/11/18 00:32:35;;;;;;;23.20;14.10;;;;;;;3.29;100.00;101924.78;678450;28;4467;-51
2021/11/18 00:32:56;;;;;;;21.25;13.65;;;;;;;3.29;100.00;101923.91;679233;28;1834;-54
2021/11/18 00:33:17;;;;;;;22.20;13.60;;;;;;;3.29;100.00;101929.94;680624;28;1551;-55
2021/11/18 00:33:38;;;;;;;23.38;14.40;;;;;;;3.27;100.00;101921.25;683196;28;1462;-53
2021/11/18 00:33:59;;;;;;;21.57;14.27;;;;;;;3.25;100.00;101928.03;679438;28;1546;-54
2021/11/18 00:34:19;;;;;;;22.65;14.18;;;;;;;3.21;100.00;101921.88;678135;29;1332;-53
2021/11/18 00:34:42;;;;;;;22.10;14.02;;;;;;;3.21;100.00;101920.97;678232;28;2154;-52
2021/11/18 00:35:06;;;;;;;21.50;14.00;;;;;;;3.21;100.00;101921.88;674074;29;3679;-55
2021/11/18 00:35:28;;;;;;;22.15;13.50;;;;;;;3.22;100.00;101922.72;675012;29;4575;-53
2021/11/18 00:35:49;;;;;;;22.58;13.43;;;;;;;3.23;100.00;101924.50;676039;29;1146;-51
2021/11/18 00:36:13;;;;;;;22.83;14.25;;;;;;;3.21;100.00;101927.03;677245;29;1291;-55
2021/11/18 00:36:34;;;;;;;22.05;14.35;;;;;;;3.18;100.00;101926.00;676274;29;1130;-55
2021/11/18 00:36:54;;;;;;;22.10;14.15;;;;;;;3.18;100.00;101926.88;678052;29;1362;-53
2021/11/18 00:37:15;;;;;;;24.37;14.63;;;;;;;3.18;100.00;101918.25;681889;28;1180;-55
2021/11/18 00:37:35;;;;;;;24.27;14.07;;;;;;;3.21;100.00;101927.03;680525;28;3241;-52
2021/11/18 00:37:56;;;;;;;22.57;13.90;;;;;;;3.30;100.00;101926.56;677938;28;2267;-51
2021/11/18 00:38:20;;;;;;;19.33;12.90;;;;;;;3.37;100.00;101930.31;676111;29;4506;-52
2021/11/18 00:38:43;;;;;;;18.45;12.65;;;;;;;3.36;100.00;101925.94;678538;29;1129;-52
2021/11/18 00:39:05;;;;;;;20.17;12.77;;;;;;;3.33;100.00;101924.09;677267;28;1299;-54
2021/11/18 00:39:26;;;;;;;21.42;13.57;;;;;;;3.32;100.00;101927.50;678224;29;1062;-54
2021/11/18 00:39:46;;;;;;;21.73;13.77;;;;;;;3.28;100.00;101925.63;683532;28;1319;-54
2021/11/18 00:40:08;;;;;;;22.85;13.90;;;;;;;3.30;100.00;101925.69;685218;28;1151;-55
2021/11/18 00:40:35;;;;;;;20.17;13.85;;;;;;;3.31;100.00;101927.44;684844;28;1290;-53
2021/11/18 00:40:56;;;;;;;21.08;13.50;;;;;;;3.30;100.00;101921.38;684706;28;2206;-55
2021/11/18 00:41:18;;;;;;;20.02;13.02;;;;;;;3.30;100.00;101929.13;681134;28;4865;-54
2021/11/18 00:41:38;;;;;;;21.55;13.48;;;;;;;3.30;100.00;101930.84;679486;28;1982;-52
2021/11/18 00:41:59;;;;;;;21.53;13.70;;;;;;;3.32;100.00;101924.91;678239;29;1146;-50
2021/11/18 00:42:19;;;;;;;20.70;13.38;;;;;;;3.35;100.00;101927.66;677899;29;1019;-50
2021/11/18 00:42:40;;;;;;;22.10;13.77;;;;;;;3.38;100.00;101924.31;675686;29;1404;-56
2021/11/18 00:43:01;;;;;;;21.77;13.20;;;;;;;3.44;100.00;101923.72;675676;29;1050;-54
2021/11/18 00:43:23;;;;;;;21.40;13.30;;;;;;;3.46;100.00;101928.13;677985;29;1190;-53
2021/11/18 00:43:45;;;;;;;21.30;13.32;;;;;;;3.45;100.00;101922.88;679875;28;1872;-51
2021/11/18 00:44:06;;;;;;;21.92;13.88;;;;;;;3.40;100.00;101922.69;677345;29;2256;-51
2021/11/18 00:44:26;;;;;;;21.95;13.57;;;;;;;3.39;100.00;101928.66;677670;28;4591;-54
2021/11/18 00:44:47;;;;;;;20.50;12.90;;;;;;;3.35;100.00;101929.34;681126;29;1184;-53
2021/11/18 00:45:10;;;;;;;19.90;13.00;;;;;;;3.33;100.00;101921.50;675374;29;1296;-55
2021/11/18 00:45:31;;;;;;;20.25;13.23;;;;;;;3.34;100.00;101923.28;673574;29;1297;-52
2021/11/18 00:45:54;;;;;;;19.92;13.50;;;;;;;3.36;100.00;101920.78;675017;29;1075;-54
2021/11/18 00:46:15;;;;;;;19.13;12.75;;;;;;;3.39;100.00;101924.38;678609;28;1655;-51
2021/11/18 00:46:36;;;;;;;20.55;12.98;;;;;;;3.41;100.00;101929.63;679171;28;4016;-56
2021/11/18 00:46:57;;;;;;;21.77;13.15;;;;;;;3.37;100.00;101923.41;680794;28;3847;-54
2021/11/18 00:47:17;;;;;;;20.25;13.20;;;;;;;3.33;100.00;101920.63;682986;28;4365;-53
2021/11/18 00:47:37;;;;;;;20.57;13.23;;;;;;;3.29;100.00;101919.59;683992;28;1231;-54
2021/11/18 00:47:58;;;;;;;21.17;13.77;;;;;;;3.29;100.00;101919.59;681045;29;909;-52
2021/11/18 00:48:18;;;;;;;22.48;13.77;;;;;;;3.27;100.00;101917.75;677759;29;930;-51
2021/11/18 00:48:40;;;;;;;22.58;13.98;;;;;;;3.26;100.00;101922.06;678775;29;1118;-54
2021/11/18 00:49:00;;;;;;;20.77;13.25;;;;;;;3.30;100.00;101920.50;682109;28;1233;-53
2021/11/18 00:49:21;;;;;;;21.25;13.23;;;;;;;3.33;100.00;101918.06;681562;28;997;-55
2021/11/18 00:49:42;;;;;;;20.30;13.13;;;;;;;3.32;100.00;101918.88;682983;28;3816;-53
2021/11/18 00:50:05;;;;;;;18.83;13.07;;;;;;;3.27;100.00;101929.00;685117;28;3628;-52
2021/11/18 00:50:31;;;;;;;20.73;13.38;;;;;;;3.27;100.00;101922.94;684333;28;4433;-52
2021/11/18 00:50:57;;;;;;;21.98;13.20;;;;;;;3.25;100.00;101930.63;682934;28;1215;-52
2021/11/18 00:51:20;;;;;;;22.48;13.68;;;;;;;3.28;100.00;101930.78;679632;29;884;-56
2021/11/18 00:51:42;;;;;;;21.73;13.13;;;;;;;3.29;100.00;101929.94;682037;28;1253;-53
2021/11/18 00:52:03;;;;;;;21.48;13.23;;;;;;;3.30;100.00;101941.19;682162;28;1140;-53
2021/11/18 00:52:24;;;;;;;19.25;13.05;;;;;;;3.31;100.00;101946.41;681106;28;1379;-55
2021/11/18 00:52:44;;;;;;;19.98;12.82;;;;;;;3.26;100.00;101945.31;682736;28;3482;-55
2021/11/18 00:53:07;;;;;;;20.77;13.07;;;;;;;3.27;100.00;101939.34;683570;28;1160;-57
2021/11/18 00:53:28;;;;;;;21.77;13.50;;;;;;;3.26;100.00;101947.03;680851;28;4682;-52
2021/11/18 00:53:54;;;;;;;20.33;13.75;;;;;;;3.21;100.00;101947.69;682760;28;1479;-54
2021/11/18 00:54:15;;;;;;;21.17;13.45;;;;;;;3.22;100.00;101948.56;680521;28;2199;-54
2021/11/18 00:54:37;;;;;;;21.95;13.73;;;;;;;3.21;100.00;101946.78;683309;28;1179;-52
2021/11/18 00:54:57;;;;;;;23.47;14.40;;;;;;;3.19;100.00;101938.09;683671;28;1167;-51
2021/11/18 00:55:19;;;;;;;23.48;14.07;;;;;;;3.19;100.00;101943.28;681484;28;1629;-52
2021/11/18 00:55:39;;;;;;;23.80;13.95;;;;;;;3.18;100.00;101936.31;681123;28;2947;-54
2021/11/18 00:56:00;;;;;;;22.38;13.70;;;;;;;3.17;100.00;101932.88;680459;28;1485;-54
2021/11/18 00:56:22;;;;;;;22.00;13.47;;;;;;;3.20;100.00;101930.41;678884;28;4371;-50
2021/11/18 00:56:43;;;;;;;20.98;13.38;;;;;;;3.23;100.00;101938.31;677703;29;1104;-55
2021/11/18 00:57:03;;;;;;;21.33;13.38;;;;;;;3.28;100.00;101937.63;677983;29;1237;-54
2021/11/18 00:57:24;;;;;;;21.27;13.05;;;;;;;3.31;100.00;101938.66;678207;29;1246;-51
2021/11/18 00:57:45;;;;;;;21.53;13.47;;;;;;;3.35;100.00;101925.06;678409;29;1392;-51
2021/11/18 00:58:07;;;;;;;19.25;13.00;;;;;;;3.38;100.00;101925.19;674323;29;2787;-51
2021/11/18 00:58:28;;;;;;;19.77;13.00;;;;;;;3.38;100.00;101926.91;675709;29;2034;-52
2021/11/18 00:58:51;;;;;;;20.92;13.45;;;;;;;3.41;100.00;101929.63;677268;29;4479;-52
2021/11/18 00:59:11;;;;;;;20.00;12.90;;;;;;;3.43;100.00;101932.28;678398;29;1571;-55
2021/11/18 00:59:31;;;;;;;20.10;13.10;;;;;;;3.35;100.00;101929.34;676007;29;4672;-52
2021/11/18 00:59:52;;;;;;;18.07;12.77;;;;;;;3.27;100.00;101931.59;678392;28;1192;-51
2021/11/18 01:00:19;;;;;;;18.92;12.70;;;;;;;3.21;100.00;101926.13;678218;29;1476;-53
2021/11/18 01:00:42;;;;;;;20.83;13.90;;;;;;;3.20;100.00;101933.00;679901;28;1275;-52
2021/11/18 01:01:05;;;;;;;20.75;13.43;;;;;;;3.17;100.00;101929.38;679648;29;1261;-52
2021/11/18 01:01:31;;;;;;;20.34;12.84;;;;;;;3.11;100.00;101934.28;681441;28;2069;-55
2021/11/18 01:01:54;;;;;;;22.83;14.30;;;;;;;3.09;100.00;101941.97;680382;29;1612;-52
2021/11/18 01:02:16;;;;;;;24.08;14.30;;;;;;;3.07;100.00;101941.00;680294;29;1380;-51
2021/11/18 01:02:38;;;;;;;22.15;14.10;;;;;;;3.03;100.00;101937.41;678044;29;5614;-52
2021/11/18 01:02:58;;;;;;;21.27;14.05;;;;;;;3.02;100.00;101940.78;678475;29;1221;-52
2021/11/18 01:03:22;;;;;;;24.08;14.38;;;;;;;3.02;100.00;101942.50;678218;28;1346;-52
2021/11/18 01:03:42;;;;;;;23.30;14.32;;;;;;;3.01;100.00;101944.19;679257;28;1252;-51
2021/11/18 01:04:03;;;;;;;22.75;13.90;;;;;;;3.02;100.00;101939.91;681092;28;1318;-52
2021/11/18 01:04:27;;;;;;;21.93;13.83;;;;;;;3.02;100.00;101948.53;679868;28;1883;-50
2021/11/18 01:04:47;;;;;;;25.48;14.20;;;;;;;3.04;100.00;101944.31;682133;28;1259;-54
2021/11/18 01:05:08;;;;;;;26.35;14.50;;;;;;;3.04;100.00;101943.44;681879;28;1342;-52
2021/11/18 01:05:32;;;;;;;23.73;13.85;;;;;;;3.04;100.00;101939.16;676358;28;4488;-55
2021/11/18 01:05:54;;;;;;;23.45;14.80;;;;;;;3.06;100.00;101942.72;677729;29;1439;-51
2021/11/18 01:06:15;;;;;;;23.80;14.40;;;;;;;3.06;100.00;101947.88;676141;29;1339;-52
2021/11/18 01:06:35;;;;;;;20.67;12.98;;;;;;;3.11;100.00;101939.44;675819;29;1197;-51
2021/11/18 01:06:57;;;;;;;22.13;13.37;;;;;;;3.17;100.00;101950.06;678462;29;1268;-51
2021/11/18 01:07:17;;;;;;;23.73;13.93;;;;;;;3.21;100.00;101946.78;677913;29;3158;-52
2021/11/18 01:07:38;;;;;;;22.80;14.02;;;;;;;3.23;100.00;101946.06;677803;29;3466;-50
2021/11/18 01:07:59;;;;;;;22.73;14.40;;;;;;;3.25;100.00;101946.13;678131;29;1437;-54
2021/11/18 01:08:20;;;;;;;21.58;13.38;;;;;;;3.28;100.00;101947.97;679910;28;4625;-55
2021/11/18 01:08:41;;;;;;;22.27;13.35;;;;;;;3.28;100.00;101943.72;679972;28;1303;-52
2021/11/18 01:09:05;;;;;;;20.57;12.90;;;;;;;3.25;100.00;101951.28;680734;28;1149;-50
2021/11/18 01:09:26;;;;;;;20.77;13.43;;;;;;;3.19;100.00;101943.28;678657;29;1467;-52
2021/11/18 01:09:46;;;;;;;20.48;13.57;;;;;;;3.16;100.00;101944.00;680872;29;1165;-51
2021/11/18 01:10:13;;;;;;;21.13;13.55;;;;;;;3.15;100.00;101943.94;679452;29;1457;-55
2021/11/18 01:10:44;;;;;;;23.02;13.27;;;;;;;3.17;100.00;101944.88;679266;28;2777;-51
2021/11/18 01:11:12;;;;;;;20.77;13.63;;;;;;;3.18;100.00;101936.31;680803;29;1284;-53
2021/11/18 01:11:33;;;;;;;21.30;13.45;;;;;;;3.21;100.00;101942.53;681147;28;4360;-52
2021/11/18 01:11:54;;;;;;;20.30;13.32;;;;;;;3.23;100.00;101942.59;681762;28;1183;-51
2021/11/18 01:12:19;;;;;;;21.35;13.13;;;;;;;3.19;100.00;101932.94;679819;28;1503;-56
2021/11/18 01:12:39;;;;;;;21.15;13.35;;;;;;;3.18;100.00;101939.78;683013;28;1160;-54
2021/11/18 01:13:00;;;;;;;21.47;13.30;;;;;;;3.24;100.00;101944.38;681315;28;1353;-55
2021/11/18 01:13:21;;;;;;;21.20;13.20;;;;;;;3.28;100.00;101940.22;680023;28;3250;-54
2021/11/18 01:13:42;;;;;;;20.55;13.25;;;;;;;3.27;100.00;101938.44;678026;29;3655;-53
2021/11/18 01:14:07;;;;;;;20.35;13.02;;;;;;;3.18;100.00;101934.63;675578;29;1349;-51
2021/11/18 01:14:27;;;;;;;20.48;12.88;;;;;;;3.13;100.00;101936.13;675876;28;4359;-53
2021/11/18 01:14:50;;;;;;;20.38;12.70;;;;;;;3.12;100.00;101936.06;678456;28;1328;-52
2021/11/18 01:15:14;;;;;;;18.60;12.60;;;;;;;3.10;100.00;101933.38;678495;29;1517;-53
2021/11/18 01:15:39;;;;;;;21.25;13.68;;;;;;;3.10;100.00;101932.50;677896;29;1355;-54
2021/11/18 01:16:03;;;;;;;21.58;13.45;;;;;;;3.06;100.00;101932.38;682243;28;1404;-51
2021/11/18 01:16:26;;;;;;;20.92;13.20;;;;;;;3.04;100.00;101939.16;679364;28;3480;-52
2021/11/18 01:16:49;;;;;;;21.33;13.15;;;;;;;3.05;100.00;101934.88;678199;29;1324;-51
2021/11/18 01:17:10;;;;;;;22.65;13.25;;;;;;;3.04;100.00;101936.56;680496;28;1578;-53
2021/11/18 01:17:30;;;;;;;24.23;13.40;;;;;;;3.04;100.00;101939.16;676852;29;4627;-52
2021/11/18 01:17:53;;;;;;;25.27;13.90;;;;;;;3.03;100.00;101942.56;675552;29;1229;-54
2021/11/18 01:18:14;;;;;;;22.85;13.90;;;;;;;3.04;100.00;101951.19;675242;29;1284;-53
2021/11/18 01:18:35;;;;;;;21.00;13.32;;;;;;;3.08;100.00;101954.81;679283;29;1455;-52
2021/11/18 01:18:56;;;;;;;22.95;13.63;;;;;;;3.14;100.00;101949.91;680217;28;1319;-51
2021/11/18 01:19:18;;;;;;;21.40;12.80;;;;;;;3.13;100.00;101950.72;679002;29;3159;-52
2021/11/18 01:19:39;;;;;;;20.85;12.80;;;;;;;3.18;100.00;101955.28;680323;29;3750;-53
2021/11/18 01:19:59;;;;;;;19.77;12.60;;;;;;;3.23;100.00;101955.53;677615;29;1454;-53
2021/11/18 01:20:23;;;;;;;20.50;12.95;;;;;;;3.24;100.00;101958.19;677167;29;4801;-52
2021/11/18 01:20:45;;;;;;;21.48;13.32;;;;;;;3.26;100.00;101958.25;673476;29;1637;-54
2021/11/18 01:21:07;;;;;;;20.10;12.63;;;;;;;3.21;100.00;101959.72;680374;28;1506;-51
2021/11/18 01:21:29;;;;;;;19.83;12.23;;;;;;;3.16;100.00;101956.06;680836;28;1402;-50
2021/11/18 01:21:51;;;;;;;19.48;12.40;;;;;;;3.13;100.00;101955.91;682392;28;1310;-51
2021/11/18 01:22:12;;;;;;;19.60;12.15;;;;;;;3.11;100.00;101960.13;682898;28;3175;-52
2021/11/18 01:22:33;;;;;;;20.25;12.15;;;;;;;3.08;100.00;101954.81;679548;28;3505;-50
2021/11/18 01:22:56;;;;;;;21.45;12.88;;;;;;;3.03;100.00;101947.75;677500;28;1472;-51
2021/11/18 01:23:22;;;;;;;21.42;13.30;;;;;;;3.02;100.00;101951.13;680698;28;4974;-53
2021/11/18 01:23:44;;;;;;;21.85;12.98;;;;;;;3.02;100.00;101956.28;680326;28;1232;-51
2021/11/18 01:24:05;;;;;;;22.90;13.02;;;;;;;3.04;100.00;101952.06;679596;28;1402;-52
2021/11/18 01:24:43;;;;;;;20.30;12.43;;;;;;;3.12;100.00;101956.72;681204;28;1199;-52
2021/11/18 01:25:10;;;;;;;19.36;12.24;;;;;;;3.16;100.00;101961.22;679004;28;3127;-50
2021/11/18 01:25:40;;;;;;;20.20;12.35;;;;;;;3.22;100.00;101959.78;677271;29;1317;-52
2021/11/18 01:26:05;;;;;;;18.92;12.90;;;;;;;3.27;100.00;101960.03;679957;28;2238;-55
2021/11/18 01:26:26;;;;;;;20.80;12.52;;;;;;;3.32;100.00;101960.22;677033;28;4660;-53
2021/11/18 01:26:48;;;;;;;21.30;13.05;;;;;;;3.34;100.00;101954.31;682023;28;1584;-53
2021/11/18 01:27:08;;;;;;;21.42;12.68;;;;;;;3.32;100.00;101949.88;677409;29;1466;-52
2021/11/18 01:27:29;;;;;;;19.40;12.37;;;;;;;3.26;100.00;101954.78;677341;29;1926;-51
2021/11/18 01:28:02;;;;;;;21.73;12.60;;;;;;;3.16;100.00;101954.34;680424;28;3359;-53
2021/11/18 01:28:24;;;;;;;19.55;12.35;;;;;;;3.12;100.00;101954.16;677489;29;3855;-51
2021/11/18 01:28:45;;;;;;;17.70;12.02;;;;;;;3.09;100.00;101951.41;677432;29;1487;-53
2021/11/18 01:29:06;;;;;;;19.80;12.38;;;;;;;3.05;100.00;101955.56;677530;29;1375;-51
2021/11/18 01:29:29;;;;;;;20.55;12.73;;;;;;;3.04;100.00;101959.81;674230;29;4547;-54
2021/11/18 01:29:50;;;;;;;20.50;12.52;;;;;;;3.01;100.00;101959.69;673302;29;1372;-52
2021/11/18 01:30:16;;;;;;;19.85;12.20;;;;;;;3.02;100.00;101950.25;676412;29;1660;-53
2021/11/18 01:30:39;;;;;;;20.67;12.20;;;;;;;3.04;100.00;101952.06;676901;29;1130;-54
2021/11/18 01:31:01;;;;;;;19.33;12.38;;;;;;;3.06;100.00;101955.63;677623;29;2146;-52
2021/11/18 01:31:22;;;;;;;20.17;12.52;;;;;;;3.03;100.00;101964.91;679973;28;2643;-55
2021/11/18 01:31:44;;;;;;;20.48;12.82;;;;;;;2.96;100.00;101961.16;683489;28;1218;-52
2021/11/18 01:32:05;;;;;;;21.25;12.30;;;;;;;2.95;100.00;101959.41;684356;28;1492;-53
2021/11/18 01:32:29;;;;;;;19.48;11.60;;;;;;;2.92;100.00;101953.19;680234;28;4535;-52
2021/11/18 01:32:52;;;;;;;20.93;12.27;;;;;;;2.86;100.00;101958.97;678574;28;1544;-51
2021/11/18 01:33:19;;;;;;;20.70;12.90;;;;;;;2.82;100.00;101963.09;675039;29;1371;-52
2021/11/18 01:33:41;;;;;;;20.70;12.95;;;;;;;2.83;100.00;101958.81;679963;29;1576;-51
2021/11/18 01:34:04;;;;;;;17.52;12.60;;;;;;;2.87;100.00;101958.16;678195;29;1896;-55
2021/11/18 01:34:28;;;;;;;19.90;12.52;;;;;;;2.94;100.00;101964.50;676083;29;1343;-55
2021/11/18 01:34:49;;;;;;;19.88;12.32;;;;;;;2.97;100.00;101962.94;675084;29;1512;-51
2021/11/18 01:35:10;;;;;;;18.40;11.85;;;;;;;2.99;100.00;101965.59;678751;29;1425;-54
2021/11/18 01:35:32;;;;;;;18.25;11.82;;;;;;;3.01;100.00;101966.56;676023;29;5646;-51
2021/11/18 01:35:53;;;;;;;18.85;11.82;;;;;;;3.00;100.00;101963.06;679860;29;2013;-51
2021/11/18 01:36:15;;;;;;;19.02;11.88;;;;;;;2.97;100.00;101969.81;680674;28;1637;-50
2021/11/18 01:36:43;;;;;;;19.67;12.20;;;;;;;2.93;100.00;101966.19;681061;29;1621;-52
2021/11/18 01:37:06;;;;;;;18.35;11.90;;;;;;;2.92;100.00;101964.41;678980;28;3675;-54
2021/11/18 01:37:27;;;;;;;20.23;12.43;;;;;;;2.93;100.00;101970.47;677211;29;1872;-53
2021/11/18 01:37:47;;;;;;;21.65;13.00;;;;;;;2.89;100.00;101964.28;676604;29;1469;-52
2021/11/18 01:38:08;;;;;;;20.85;12.80;;;;;;;2.87;100.00;101968.50;673468;29;1571;-53
2021/11/18 01:38:32;;;;;;;20.90;12.55;;;;;;;2.83;100.00;101964.88;671232;29;5771;-52
2021/11/18 01:39:12;;;;;;;19.08;11.90;;;;;;;2.74;100.00;101969.56;677580;29;1357;-51
2021/11/18 01:39:32;;;;;;;18.33;12.25;;;;;;;2.76;100.00;101972.25;676178;29;1584;-56
2021/11/18 01:39:54;;;;;;;17.45;12.50;;;;;;;2.79;100.00;101972.41;678878;28;3204;-52
2021/11/18 01:40:19;;;;;;;18.38;12.02;;;;;;;2.82;100.00;101975.13;682169;28;3582;-52
2021/11/18 01:40:49;;;;;;;18.26;12.04;;;;;;;2.85;100.00;101970.09;684223;28;1472;-52
2021/11/18 01:41:37;;;;;;;18.45;12.45;;;;;;;2.84;100.00;101976.09;681875;28;4645;-52
2021/11/18 01:42:04;;;;;;;17.27;11.80;;;;;;;2.81;100.00;101970.75;681639;28;1224;-53
2021/11/18 01:42:24;;;;;;;19.00;12.32;;;;;;;2.80;100.00;101971.59;678725;29;1288;-53
2021/11/18 01:42:47;;;;;;;20.30;12.50;;;;;;;2.77;100.00;101966.25;679016;29;1385;-52
2021/11/18 01:43:09;;;;;;;17.25;12.27;;;;;;;2.72;100.00;101966.06;677503;29;3235;-51
2021/11/18 01:43:38;;;;;;;16.45;12.07;;;;;;;2.72;100.00;101961.75;680853;28;1423;-50
2021/11/18 01:44:02;;;;;;;17.60;11.55;;;;;;;2.77;100.00;101964.59;680991;29;1373;-51